sensor_id;sensor_type;location;lat;lon;timestamp;temperature;humidity
41944;DHT22;27636;52.610;13.244;2023-05-07T00:00:56;9.10;99.90
41944;DHT22;27636;52.610;13.244;2023-05-07T00:06:01;8.90;99.90
41944;DHT22;27636;52.610;13.244;2023-05-07T00:11:04;8.80;99.90
41944;DHT22;27636;52.610;13.244;2023-05-07T00:16:08;8.90;99.90
41944;DHT22;27636;52.610;13.244;2023-05-07T00:21:13;8.90;99.90
41944;DHT22;27636;52.610;13.244;2023-05-07T00:26:17;8.90;99.90
41944;DHT22;27636;52.610;13.244;2023-05-07T00:31:23;9.00;99.90
41944;DHT22;27636;52.610;13.244;2023-05-07T00:36:28;9.00;99.90
41944;DHT22;27636;52.610;13.244;2023-05-07T00:41:32;8.90;99.90
41944;DHT22;27636;52.610;13.244;2023-05-07T00:46:35;9.00;99.90
41944;DHT22;27636;52.610;13.244;2023-05-07T00:51:41;8.90;99.90
41944;DHT22;27636;52.610;13.244;2023-05-07T00:56:45;8.90;99.90
41944;DHT22;27636;52.610;13.244;2023-05-07T01:01:49;8.90;99.90
41944;DHT22;27636;52.610;13.244;2023-05-07T01:06:55;8.90;99.90
41944;DHT22;27636;52.610;13.244;2023-05-07T01:12:00;8.90;99.90
41944;DHT22;27636;52.610;13.244;2023-05-07T01:17:04;8.90;99.90
41944;DHT22;27636;52.610;13.244;2023-05-07T01:22:11;8.90;99.90
41944;DHT22;27636;52.610;13.244;2023-05-07T01:27:25;8.90;99.90
41944;DHT22;27636;52.610;13.244;2023-05-07T01:32:33;9.00;99.90
41944;DHT22;27636;52.610;13.244;2023-05-07T01:37:39;8.90;99.90
41944;DHT22;27636;52.610;13.244;2023-05-07T01:42:46;8.80;99.90
41944;DHT22;27636;52.610;13.244;2023-05-07T01:47:51;8.80;99.90
41944;DHT22;27636;52.610;13.244;2023-05-07T01:52:56;9.00;99.90
41944;DHT22;27636;52.610;13.244;2023-05-07T01:58:01;9.00;99.90
41944;DHT22;27636;52.610;13.244;2023-05-07T02:03:05;9.00;99.90
41944;DHT22;27636;52.610;13.244;2023-05-07T02:08:16;8.90;99.90
41944;DHT22;27636;52.610;13.244;2023-05-07T02:13:21;8.90;99.90
41944;DHT22;27636;52.610;13.244;2023-05-07T02:18:26;9.00;99.90
41944;DHT22;27636;52.610;13.244;2023-05-07T02:23:30;9.00;99.90
41944;DHT22;27636;52.610;13.244;2023-05-07T02:28:35;8.90;99.90
41944;DHT22;27636;52.610;13.244;2023-05-07T02:33:40;8.90;99.90
41944;DHT22;27636;52.610;13.244;2023-05-07T02:38:45;9.00;99.90
41944;DHT22;27636;52.610;13.244;2023-05-07T02:43:50;8.90;99.90
41944;DHT22;27636;52.610;13.244;2023-05-07T02:48:54;8.80;99.90
41944;DHT22;27636;52.610;13.244;2023-05-07T02:53:57;9.00;99.90
41944;DHT22;27636;52.610;13.244;2023-05-07T02:59:03;8.90;99.90
41944;DHT22;27636;52.610;13.244;2023-05-07T03:04:11;8.80;99.90
41944;DHT22;27636;52.610;13.244;2023-05-07T03:09:15;8.90;99.90
41944;DHT22;27636;52.610;13.244;2023-05-07T03:14:19;8.90;99.90
41944;DHT22;27636;52.610;13.244;2023-05-07T03:19:24;8.80;99.90
41944;DHT22;27636;52.610;13.244;2023-05-07T03:24:28;9.00;99.90
41944;DHT22;27636;52.610;13.244;2023-05-07T03:29:33;8.80;99.90
41944;DHT22;27636;52.610;13.244;2023-05-07T03:34:37;8.70;99.90
41944;DHT22;27636;52.610;13.244;2023-05-07T03:39:40;8.70;99.90
41944;DHT22;27636;52.610;13.244;2023-05-07T03:44:45;9.00;99.90
41944;DHT22;27636;52.610;13.244;2023-05-07T03:49:49;8.90;99.90
41944;DHT22;27636;52.610;13.244;2023-05-07T03:55:00;8.80;99.90
41944;DHT22;27636;52.610;13.244;2023-05-07T04:00:07;8.90;99.90
41944;DHT22;27636;52.610;13.244;2023-05-07T04:05:22;8.80;99.90
41944;DHT22;27636;52.610;13.244;2023-05-07T04:10:31;8.80;99.90
41944;DHT22;27636;52.610;13.244;2023-05-07T04:15:40;8.90;99.90
41944;DHT22;27636;52.610;13.244;2023-05-07T04:20:46;8.90;99.90
41944;DHT22;27636;52.610;13.244;2023-05-07T04:25:51;9.00;99.90
41944;DHT22;27636;52.610;13.244;2023-05-07T04:31:05;9.00;99.90
41944;DHT22;27636;52.610;13.244;2023-05-07T04:36:11;9.00;99.90
41944;DHT22;27636;52.610;13.244;2023-05-07T04:41:24;9.10;99.90
41944;DHT22;27636;52.610;13.244;2023-05-07T04:46:30;9.00;99.90
41944;DHT22;27636;52.610;13.244;2023-05-07T04:51:34;9.10;99.90
41944;DHT22;27636;52.610;13.244;2023-05-07T04:56:38;9.40;99.90
41944;DHT22;27636;52.610;13.244;2023-05-07T05:01:43;9.30;99.90
41944;DHT22;27636;52.610;13.244;2023-05-07T05:06:46;9.20;99.90
41944;DHT22;27636;52.610;13.244;2023-05-07T05:11:50;9.40;99.90
41944;DHT22;27636;52.610;13.244;2023-05-07T05:16:55;9.60;99.90
41944;DHT22;27636;52.610;13.244;2023-05-07T05:21:59;9.50;99.90
41944;DHT22;27636;52.610;13.244;2023-05-07T05:27:05;9.20;99.90
41944;DHT22;27636;52.610;13.244;2023-05-07T05:32:10;9.20;99.90
41944;DHT22;27636;52.610;13.244;2023-05-07T05:37:14;9.20;99.90
41944;DHT22;27636;52.610;13.244;2023-05-07T05:42:18;9.60;99.90
41944;DHT22;27636;52.610;13.244;2023-05-07T05:47:23;9.80;99.90
41944;DHT22;27636;52.610;13.244;2023-05-07T05:52:30;9.90;99.90
41944;DHT22;27636;52.610;13.244;2023-05-07T05:57:33;10.10;99.90
41944;DHT22;27636;52.610;13.244;2023-05-07T06:02:39;10.60;99.90
41944;DHT22;27636;52.610;13.244;2023-05-07T06:07:43;10.90;99.90
41944;DHT22;27636;52.610;13.244;2023-05-07T06:12:47;11.20;99.90
41944;DHT22;27636;52.610;13.244;2023-05-07T06:17:54;11.60;99.90
41944;DHT22;27636;52.610;13.244;2023-05-07T06:23:00;11.80;99.90
41944;DHT22;27636;52.610;13.244;2023-05-07T06:28:05;12.10;99.90
41944;DHT22;27636;52.610;13.244;2023-05-07T06:33:12;12.00;99.90
41944;DHT22;27636;52.610;13.244;2023-05-07T06:38:17;13.50;99.90
41944;DHT22;27636;52.610;13.244;2023-05-07T06:43:22;13.50;99.90
41944;DHT22;27636;52.610;13.244;2023-05-07T06:48:33;14.10;99.90
41944;DHT22;27636;52.610;13.244;2023-05-07T06:53:40;13.00;99.90
41944;DHT22;27636;52.610;13.244;2023-05-07T06:58:46;13.00;99.90
41944;DHT22;27636;52.610;13.244;2023-05-07T07:03:51;12.70;99.90
41944;DHT22;27636;52.610;13.244;2023-05-07T07:08:56;13.90;99.90
41944;DHT22;27636;52.610;13.244;2023-05-07T07:14:00;12.20;99.90
41944;DHT22;27636;52.610;13.244;2023-05-07T07:19:08;12.70;99.90
41944;DHT22;27636;52.610;13.244;2023-05-07T07:24:13;14.60;99.90
41944;DHT22;27636;52.610;13.244;2023-05-07T07:29:23;15.70;98.90
41944;DHT22;27636;52.610;13.244;2023-05-07T07:34:31;17.30;93.40
41944;DHT22;27636;52.610;13.244;2023-05-07T07:39:36;16.20;93.10
41944;DHT22;27636;52.610;13.244;2023-05-07T07:44:44;16.80;91.40
41944;DHT22;27636;52.610;13.244;2023-05-07T07:49:51;17.00;92.00
41944;DHT22;27636;52.610;13.244;2023-05-07T07:54:55;17.20;90.30
41944;DHT22;27636;52.610;13.244;2023-05-07T07:59:59;16.80;90.10
41944;DHT22;27636;52.610;13.244;2023-05-07T08:05:05;14.70;93.90
41944;DHT22;27636;52.610;13.244;2023-05-07T08:10:10;16.00;92.20
41944;DHT22;27636;52.610;13.244;2023-05-07T08:15:14;16.20;90.10
41944;DHT22;27636;52.610;13.244;2023-05-07T08:20:20;17.20;87.70
41944;DHT22;27636;52.610;13.244;2023-05-07T08:25:23;17.00;87.00
41944;DHT22;27636;52.610;13.244;2023-05-07T08:30:27;17.00;87.30
41944;DHT22;27636;52.610;13.244;2023-05-07T08:35:33;16.60;87.00
41944;DHT22;27636;52.610;13.244;2023-05-07T08:40:37;17.80;80.50
41944;DHT22;27636;52.610;13.244;2023-05-07T08:45:45;18.80;78.70
41944;DHT22;27636;52.610;13.244;2023-05-07T08:50:53;18.50;80.20
41944;DHT22;27636;52.610;13.244;2023-05-07T08:55:58;17.80;79.40
41944;DHT22;27636;52.610;13.244;2023-05-07T09:01:08;18.40;80.70
41944;DHT22;27636;52.610;13.244;2023-05-07T09:06:15;19.30;77.80
41944;DHT22;27636;52.610;13.244;2023-05-07T09:11:21;20.10;75.00
41944;DHT22;27636;52.610;13.244;2023-05-07T09:16:28;19.40;72.80
41944;DHT22;27636;52.610;13.244;2023-05-07T09:21:36;19.60;73.20
41944;DHT22;27636;52.610;13.244;2023-05-07T09:26:43;19.40;74.00
41944;DHT22;27636;52.610;13.244;2023-05-07T09:31:47;19.10;75.80
41944;DHT22;27636;52.610;13.244;2023-05-07T09:36:54;18.10;76.20
41944;DHT22;27636;52.610;13.244;2023-05-07T09:41:58;16.80;81.60
41944;DHT22;27636;52.610;13.244;2023-05-07T09:47:11;18.20;80.10
41944;DHT22;27636;52.610;13.244;2023-05-07T09:52:23;18.90;75.80
41944;DHT22;27636;52.610;13.244;2023-05-07T09:57:30;18.70;77.10
41944;DHT22;27636;52.610;13.244;2023-05-07T10:02:39;18.90;75.00
41944;DHT22;27636;52.610;13.244;2023-05-07T10:07:51;17.50;78.00
41944;DHT22;27636;52.610;13.244;2023-05-07T10:12:57;17.70;78.00
41944;DHT22;27636;52.610;13.244;2023-05-07T10:18:09;19.10;75.00
41944;DHT22;27636;52.610;13.244;2023-05-07T10:23:19;18.60;72.00
41944;DHT22;27636;52.610;13.244;2023-05-07T10:28:29;16.90;82.30
41944;DHT22;27636;52.610;13.244;2023-05-07T10:33:34;17.40;78.30
41944;DHT22;27636;52.610;13.244;2023-05-07T10:38:40;17.30;80.50
41944;DHT22;27636;52.610;13.244;2023-05-07T10:43:45;16.70;82.60
41944;DHT22;27636;52.610;13.244;2023-05-07T10:49:11;15.90;82.00
41944;DHT22;27636;52.610;13.244;2023-05-07T10:54:24;17.20;80.50
41944;DHT22;27636;52.610;13.244;2023-05-07T10:59:37;17.80;77.00
41944;DHT22;27636;52.610;13.244;2023-05-07T11:05:19;17.60;78.60
41944;DHT22;27636;52.610;13.244;2023-05-07T11:10:49;17.00;80.00
41944;DHT22;27636;52.610;13.244;2023-05-07T11:16:01;18.70;74.50
41944;DHT22;27636;52.610;13.244;2023-05-07T11:21:31;18.90;71.20
41944;DHT22;27636;52.610;13.244;2023-05-07T11:26:48;19.90;71.00
41944;DHT22;27636;52.610;13.244;2023-05-07T11:31:55;19.50;68.80
41944;DHT22;27636;52.610;13.244;2023-05-07T11:37:02;19.60;67.10
41944;DHT22;27636;52.610;13.244;2023-05-07T11:42:30;20.00;70.30
41944;DHT22;27636;52.610;13.244;2023-05-07T11:47:33;20.10;66.40
41944;DHT22;27636;52.610;13.244;2023-05-07T11:52:37;18.00;73.30
41944;DHT22;27636;52.610;13.244;2023-05-07T11:57:44;19.80;67.10
41944;DHT22;27636;52.610;13.244;2023-05-07T12:02:48;19.30;67.00
41944;DHT22;27636;52.610;13.244;2023-05-07T12:07:56;18.10;71.70
41944;DHT22;27636;52.610;13.244;2023-05-07T12:13:00;17.80;73.80
41944;DHT22;27636;52.610;13.244;2023-05-07T12:18:05;18.70;73.20
41944;DHT22;27636;52.610;13.244;2023-05-07T12:23:08;17.90;74.20
41944;DHT22;27636;52.610;13.244;2023-05-07T12:28:14;18.90;69.90
41944;DHT22;27636;52.610;13.244;2023-05-07T12:33:24;19.40;69.00
41944;DHT22;27636;52.610;13.244;2023-05-07T12:38:34;20.10;67.60
41944;DHT22;27636;52.610;13.244;2023-05-07T12:43:44;20.40;66.00
41944;DHT22;27636;52.610;13.244;2023-05-07T12:48:48;17.80;70.20
41944;DHT22;27636;52.610;13.244;2023-05-07T12:53:55;18.40;69.30
41944;DHT22;27636;52.610;13.244;2023-05-07T12:59:00;19.00;69.00
41944;DHT22;27636;52.610;13.244;2023-05-07T13:04:04;18.70;68.80
41944;DHT22;27636;52.610;13.244;2023-05-07T13:09:08;19.10;68.20
41944;DHT22;27636;52.610;13.244;2023-05-07T13:14:13;19.70;66.00
41944;DHT22;27636;52.610;13.244;2023-05-07T13:19:17;18.40;69.10
41944;DHT22;27636;52.610;13.244;2023-05-07T13:24:20;18.20;69.90
41944;DHT22;27636;52.610;13.244;2023-05-07T13:29:25;19.30;67.20
41944;DHT22;27636;52.610;13.244;2023-05-07T13:34:32;19.30;67.00
41944;DHT22;27636;52.610;13.244;2023-05-07T13:39:35;19.20;66.60
41944;DHT22;27636;52.610;13.244;2023-05-07T13:44:40;18.80;67.10
41944;DHT22;27636;52.610;13.244;2023-05-07T13:49:43;18.30;69.40
41944;DHT22;27636;52.610;13.244;2023-05-07T13:54:47;17.90;69.20
41944;DHT22;27636;52.610;13.244;2023-05-07T13:59:52;18.90;67.40
41944;DHT22;27636;52.610;13.244;2023-05-07T14:04:55;19.20;66.20
41944;DHT22;27636;52.610;13.244;2023-05-07T14:09:59;19.20;67.70
41944;DHT22;27636;52.610;13.244;2023-05-07T14:15:05;17.60;72.10
41944;DHT22;27636;52.610;13.244;2023-05-07T14:20:11;17.10;71.60
41944;DHT22;27636;52.610;13.244;2023-05-07T14:25:15;16.90;73.40
41944;DHT22;27636;52.610;13.244;2023-05-07T14:30:26;17.50;70.40
41944;DHT22;27636;52.610;13.244;2023-05-07T14:35:30;17.20;70.00
41944;DHT22;27636;52.610;13.244;2023-05-07T14:40:34;16.80;72.00
41944;DHT22;27636;52.610;13.244;2023-05-07T14:45:39;17.10;72.80
41944;DHT22;27636;52.610;13.244;2023-05-07T14:50:42;19.10;66.70
41944;DHT22;27636;52.610;13.244;2023-05-07T14:55:47;18.70;64.60
41944;DHT22;27636;52.610;13.244;2023-05-07T15:00:52;17.70;69.70
41944;DHT22;27636;52.610;13.244;2023-05-07T15:05:55;17.40;69.90
41944;DHT22;27636;52.610;13.244;2023-05-07T15:10:59;17.40;71.10
41944;DHT22;27636;52.610;13.244;2023-05-07T15:16:03;16.90;71.40
41944;DHT22;27636;52.610;13.244;2023-05-07T15:21:07;17.30;70.80
41944;DHT22;27636;52.610;13.244;2023-05-07T15:26:12;17.00;72.80
41944;DHT22;27636;52.610;13.244;2023-05-07T15:31:17;17.40;71.40
41944;DHT22;27636;52.610;13.244;2023-05-07T15:36:20;18.00;69.60
41944;DHT22;27636;52.610;13.244;2023-05-07T15:41:24;17.50;71.00
41944;DHT22;27636;52.610;13.244;2023-05-07T15:46:29;17.00;71.70
41944;DHT22;27636;52.610;13.244;2023-05-07T15:51:34;17.00;72.40
41944;DHT22;27636;52.610;13.244;2023-05-07T15:56:38;17.20;71.80
41944;DHT22;27636;52.610;13.244;2023-05-07T16:01:42;16.80;73.40
41944;DHT22;27636;52.610;13.244;2023-05-07T16:06:47;16.50;74.90
41944;DHT22;27636;52.610;13.244;2023-05-07T16:11:51;16.50;74.50
41944;DHT22;27636;52.610;13.244;2023-05-07T16:16:57;16.60;74.40
41944;DHT22;27636;52.610;13.244;2023-05-07T16:22:00;17.00;73.50
41944;DHT22;27636;52.610;13.244;2023-05-07T16:27:04;18.00;69.50
41944;DHT22;27636;52.610;13.244;2023-05-07T16:32:10;18.50;67.80
41944;DHT22;27636;52.610;13.244;2023-05-07T16:37:13;17.60;70.90
41944;DHT22;27636;52.610;13.244;2023-05-07T16:42:16;16.80;73.20
41944;DHT22;27636;52.610;13.244;2023-05-07T16:47:21;16.10;75.20
41944;DHT22;27636;52.610;13.244;2023-05-07T16:52:25;15.60;77.20
41944;DHT22;27636;52.610;13.244;2023-05-07T16:57:29;15.30;78.60
41944;DHT22;27636;52.610;13.244;2023-05-07T17:02:34;15.40;79.40
41944;DHT22;27636;52.610;13.244;2023-05-07T17:07:38;15.20;79.40
41944;DHT22;27636;52.610;13.244;2023-05-07T17:12:41;14.90;80.50
41944;DHT22;27636;52.610;13.244;2023-05-07T17:17:46;14.70;82.20
41944;DHT22;27636;52.610;13.244;2023-05-07T17:22:49;15.20;80.30
41944;DHT22;27636;52.610;13.244;2023-05-07T17:27:54;15.30;79.40
41944;DHT22;27636;52.610;13.244;2023-05-07T17:32:59;15.30;77.60
41944;DHT22;27636;52.610;13.244;2023-05-07T17:38:22;14.90;79.00
41944;DHT22;27636;52.610;13.244;2023-05-07T17:43:25;14.60;80.30
41944;DHT22;27636;52.610;13.244;2023-05-07T17:48:30;14.40;82.50
41944;DHT22;27636;52.610;13.244;2023-05-07T17:53:33;14.10;83.10
41944;DHT22;27636;52.610;13.244;2023-05-07T17:58:36;13.90;83.20
41944;DHT22;27636;52.610;13.244;2023-05-07T18:04:01;13.70;83.30
41944;DHT22;27636;52.610;13.244;2023-05-07T18:09:04;13.70;84.30
41944;DHT22;27636;52.610;13.244;2023-05-07T18:14:08;13.70;84.30
41944;DHT22;27636;52.610;13.244;2023-05-07T18:19:13;13.80;83.80
41944;DHT22;27636;52.610;13.244;2023-05-07T18:24:16;13.70;85.00
41944;DHT22;27636;52.610;13.244;2023-05-07T18:29:19;13.70;84.90
41944;DHT22;27636;52.610;13.244;2023-05-07T18:34:24;13.50;85.20
41944;DHT22;27636;52.610;13.244;2023-05-07T18:39:28;13.30;85.50
41944;DHT22;27636;52.610;13.244;2023-05-07T18:44:31;13.10;86.40
41944;DHT22;27636;52.610;13.244;2023-05-07T18:49:36;13.00;86.90
41944;DHT22;27636;52.610;13.244;2023-05-07T18:54:40;13.00;87.80
41944;DHT22;27636;52.610;13.244;2023-05-07T18:59:43;12.90;87.50
41944;DHT22;27636;52.610;13.244;2023-05-07T19:04:48;12.70;88.50
41944;DHT22;27636;52.610;13.244;2023-05-07T19:09:52;12.60;89.00
41944;DHT22;27636;52.610;13.244;2023-05-07T19:15:15;12.30;90.10
41944;DHT22;27636;52.610;13.244;2023-05-07T19:20:20;12.20;90.10
41944;DHT22;27636;52.610;13.244;2023-05-07T19:25:23;12.10;90.40
41944;DHT22;27636;52.610;13.244;2023-05-07T19:30:27;12.10;89.90
41944;DHT22;27636;52.610;13.244;2023-05-07T19:35:32;12.10;89.30
41944;DHT22;27636;52.610;13.244;2023-05-07T19:40:37;11.80;90.40
41944;DHT22;27636;52.610;13.244;2023-05-07T19:45:40;11.90;90.30
41944;DHT22;27636;52.610;13.244;2023-05-07T19:51:01;11.80;90.30
41944;DHT22;27636;52.610;13.244;2023-05-07T19:56:07;11.70;90.50
41944;DHT22;27636;52.610;13.244;2023-05-07T20:01:11;11.60;90.80
41944;DHT22;27636;52.610;13.244;2023-05-07T20:06:16;11.50;91.40
41944;DHT22;27636;52.610;13.244;2023-05-07T20:11:20;11.30;91.90
41944;DHT22;27636;52.610;13.244;2023-05-07T20:16:24;11.30;91.70
41944;DHT22;27636;52.610;13.244;2023-05-07T20:21:29;11.10;92.20
41944;DHT22;27636;52.610;13.244;2023-05-07T20:26:32;11.10;92.50
41944;DHT22;27636;52.610;13.244;2023-05-07T20:31:35;11.10;92.90
41944;DHT22;27636;52.610;13.244;2023-05-07T20:36:40;10.80;93.50
41944;DHT22;27636;52.610;13.244;2023-05-07T20:41:44;10.60;94.30
41944;DHT22;27636;52.610;13.244;2023-05-07T20:46:48;10.60;94.70
41944;DHT22;27636;52.610;13.244;2023-05-07T20:51:53;10.70;95.20
41944;DHT22;27636;52.610;13.244;2023-05-07T20:56:57;10.20;97.10
41944;DHT22;27636;52.610;13.244;2023-05-07T21:02:02;10.30;98.00
41944;DHT22;27636;52.610;13.244;2023-05-07T21:07:07;10.20;99.50
41944;DHT22;27636;52.610;13.244;2023-05-07T21:12:11;10.40;99.50
41944;DHT22;27636;52.610;13.244;2023-05-07T21:17:14;10.50;99.60
41944;DHT22;27636;52.610;13.244;2023-05-07T21:22:19;10.50;99.40
41944;DHT22;27636;52.610;13.244;2023-05-07T21:27:22;10.40;99.00
41944;DHT22;27636;52.610;13.244;2023-05-07T21:32:26;10.50;97.70
41944;DHT22;27636;52.610;13.244;2023-05-07T21:37:31;10.40;98.00
41944;DHT22;27636;52.610;13.244;2023-05-07T21:42:35;10.30;98.10
41944;DHT22;27636;52.610;13.244;2023-05-07T21:47:38;10.20;98.80
41944;DHT22;27636;52.610;13.244;2023-05-07T21:52:43;10.20;99.10
41944;DHT22;27636;52.610;13.244;2023-05-07T21:57:46;10.10;99.80
41944;DHT22;27636;52.610;13.244;2023-05-07T22:03:06;9.90;99.90
41944;DHT22;27636;52.610;13.244;2023-05-07T22:08:11;9.90;99.90
41944;DHT22;27636;52.610;13.244;2023-05-07T22:13:15;9.80;99.90
41944;DHT22;27636;52.610;13.244;2023-05-07T22:18:20;9.70;99.90
41944;DHT22;27636;52.610;13.244;2023-05-07T22:23:25;9.70;99.90
41944;DHT22;27636;52.610;13.244;2023-05-07T22:28:29;9.50;99.90
41944;DHT22;27636;52.610;13.244;2023-05-07T22:33:32;9.40;99.90
41944;DHT22;27636;52.610;13.244;2023-05-07T22:38:37;9.40;99.90
41944;DHT22;27636;52.610;13.244;2023-05-07T22:43:40;9.10;99.90
41944;DHT22;27636;52.610;13.244;2023-05-07T22:48:44;9.20;99.90
41944;DHT22;27636;52.610;13.244;2023-05-07T22:53:49;9.20;99.90
41944;DHT22;27636;52.610;13.244;2023-05-07T22:58:53;9.10;99.90
41944;DHT22;27636;52.610;13.244;2023-05-07T23:03:56;9.10;99.90
